createdAt,value
2023-04-29T00:01:29.322Z,37.85
2023-04-29T00:03:56.133Z,36.42
2023-04-29T00:06:25.745Z,34.80
2023-04-29T00:08:53.269Z,36.30
2023-04-29T00:11:20.021Z,35.70
2023-04-29T00:13:46.731Z,36.85
2023-04-29T00:16:13.886Z,36.28
2023-04-29T00:18:40.517Z,35.85
2023-04-29T00:21:07.250Z,36.28
2023-04-29T00:23:34.377Z,36.08
2023-04-29T00:26:01.190Z,35.42
2023-04-29T00:28:28.048Z,36.35
2023-04-29T00:30:56.220Z,36.10
2023-04-29T00:33:23.310Z,37.13
2023-04-29T00:35:50.243Z,38.28
2023-04-29T00:38:17.275Z,39.70
2023-04-29T00:40:44.728Z,39.67
2023-04-29T00:43:11.511Z,40.15
2023-04-29T00:45:38.157Z,40.05
2023-04-29T00:48:05.202Z,40.40
2023-04-29T00:50:32.194Z,41.25
2023-04-29T00:52:59.403Z,41.13
2023-04-29T00:55:26.738Z,43.92
2023-04-29T00:57:53.673Z,41.15
2023-04-29T01:00:20.774Z,44.03
2023-04-29T01:02:54.340Z,42.90
2023-04-29T01:05:21.081Z,45.38
2023-04-29T01:07:56.796Z,46.40
2023-04-29T01:10:33.768Z,46.60
2023-04-29T01:13:34.520Z,46.95
2023-04-29T01:16:08.787Z,45.97
2023-04-29T01:18:43.238Z,45.65
2023-04-29T01:21:09.906Z,44.80
2023-04-29T01:26:05.648Z,43.50
2023-04-29T01:28:56.473Z,44.70
2023-04-29T01:31:31.832Z,45.40
2023-04-29T01:34:26.303Z,44.47
2023-04-29T01:37:15.658Z,44.55
2023-04-29T01:40:00.806Z,40.88
2023-04-29T01:42:39.246Z,40.50
2023-04-29T01:45:08.951Z,38.60
2023-04-29T01:47:39.781Z,39.45
2023-04-29T01:50:07.081Z,39.15
2023-04-29T01:52:33.852Z,38.25
2023-04-29T01:55:00.460Z,37.35
2023-04-29T01:57:27.036Z,37.67
2023-04-29T01:59:53.736Z,36.85
2023-04-29T02:02:23.589Z,38.80
2023-04-29T02:04:50.938Z,37.40
2023-04-29T02:07:17.813Z,39.25
2023-04-29T02:09:44.426Z,38.72
2023-04-29T02:12:11.001Z,39.40
2023-04-29T02:14:38.046Z,38.15
2023-04-29T02:17:04.817Z,38.55
2023-04-29T02:19:31.428Z,38.65
2023-04-29T02:21:58.106Z,37.58
2023-04-29T02:24:24.679Z,38.53
2023-04-29T02:26:51.386Z,37.47
2023-04-29T02:29:18.123Z,35.75
2023-04-29T02:31:44.821Z,36.72
2023-04-29T02:34:11.561Z,37.17
2023-04-29T02:36:38.132Z,34.97
2023-04-29T02:39:05.367Z,36.47
2023-04-29T02:41:31.909Z,36.70
2023-04-29T02:43:58.509Z,37.67
2023-04-29T02:46:25.282Z,36.30
2023-04-29T02:48:52.042Z,38.38
2023-04-29T02:51:18.643Z,37.33
2023-04-29T02:53:45.251Z,36.10
2023-04-29T02:56:11.835Z,36.63
2023-04-29T02:58:38.366Z,38.28
2023-04-29T03:01:05.149Z,37.40
2023-04-29T03:03:32.024Z,37.42
2023-04-29T03:05:58.687Z,36.72
2023-04-29T03:08:25.358Z,37.60
2023-04-29T03:10:52.249Z,35.90
2023-04-29T03:13:18.971Z,36.03
2023-04-29T03:15:45.751Z,35.90
2023-04-29T03:18:12.512Z,36.25
2023-04-29T03:20:39.116Z,36.22
2023-04-29T03:23:05.869Z,34.72
2023-04-29T03:25:32.516Z,35.65
2023-04-29T03:27:59.124Z,36.45
2023-04-29T03:30:25.705Z,35.08
2023-04-29T03:32:52.387Z,32.47
2023-04-29T03:35:19.105Z,33.53
2023-04-29T03:37:45.944Z,32.13
2023-04-29T03:40:13.357Z,31.00
2023-04-29T03:42:42.790Z,31.65
2023-04-29T03:45:10.166Z,30.13
2023-04-29T03:47:36.927Z,30.63
2023-04-29T03:50:04.459Z,30.65
2023-04-29T03:52:31.115Z,30.77
2023-04-29T03:54:57.866Z,28.13
2023-04-29T03:57:24.543Z,29.27
2023-04-29T03:59:51.421Z,29.10
2023-04-29T04:02:18.371Z,29.85
2023-04-29T04:04:45.475Z,30.05
2023-04-29T04:07:12.358Z,30.48
2023-04-29T04:09:39.109Z,31.20
2023-04-29T04:12:09.440Z,30.90
2023-04-29T04:14:36.122Z,30.40
2023-04-29T04:17:02.663Z,29.70
2023-04-29T04:19:31.143Z,32.05
2023-04-29T04:21:57.779Z,30.02
2023-04-29T04:24:24.442Z,30.05
2023-04-29T04:26:51.153Z,30.58
2023-04-29T04:29:17.703Z,29.45
2023-04-29T04:31:46.725Z,30.38
2023-04-29T04:34:13.703Z,31.65
2023-04-29T04:36:40.427Z,29.35
2023-04-29T04:39:10.283Z,29.80
2023-04-29T04:41:37.199Z,30.98
2023-04-29T04:44:04.183Z,30.88
2023-04-29T04:46:30.823Z,29.58
2023-04-29T04:49:00.420Z,29.80
2023-04-29T04:51:29.266Z,29.90
2023-04-29T04:53:55.929Z,29.92
2023-04-29T04:56:22.727Z,29.55
2023-04-29T04:58:49.334Z,29.05
2023-04-29T05:01:16.065Z,28.70
2023-04-29T05:03:42.896Z,27.88
2023-04-29T05:06:09.669Z,28.83
2023-04-29T05:08:36.395Z,28.63
2023-04-29T05:11:03.002Z,28.77
2023-04-29T05:13:29.661Z,28.45
2023-04-29T05:15:56.552Z,27.60
2023-04-29T05:18:23.205Z,28.13
2023-04-29T05:20:49.740Z,28.27
2023-04-29T05:23:16.448Z,29.05
2023-04-29T05:25:43.184Z,28.15
2023-04-29T05:28:09.849Z,27.60
2023-04-29T05:30:38.066Z,26.92
2023-04-29T05:33:05.276Z,26.05
2023-04-29T05:35:32.324Z,25.15
2023-04-29T05:37:58.970Z,25.40
2023-04-29T05:40:25.749Z,26.40
2023-04-29T05:42:52.554Z,25.25
2023-04-29T05:45:19.285Z,25.20
2023-04-29T05:47:45.927Z,25.15
2023-04-29T05:50:12.845Z,24.77
2023-04-29T05:52:39.682Z,24.67
2023-04-29T05:55:06.627Z,25.90
2023-04-29T05:57:33.346Z,24.15
2023-04-29T06:00:00.420Z,23.75
2023-04-29T06:02:27.857Z,24.40
2023-04-29T06:04:55.010Z,23.30
2023-04-29T06:07:21.920Z,23.85
2023-04-29T06:09:48.574Z,25.65
2023-04-29T06:12:18.864Z,25.75
2023-04-29T06:14:45.533Z,24.98
2023-04-29T06:17:12.895Z,26.05
2023-04-29T06:19:39.816Z,26.65
2023-04-29T06:22:06.367Z,24.20
2023-04-29T06:24:32.938Z,25.67
2023-04-29T06:27:01.097Z,25.60
2023-04-29T06:29:27.652Z,24.83
2023-04-29T06:31:54.472Z,24.17
2023-04-29T06:34:21.084Z,24.35
2023-04-29T06:36:47.766Z,23.80
2023-04-29T06:39:14.334Z,23.30
2023-04-29T06:41:41.152Z,24.20
2023-04-29T06:44:08.208Z,23.38
2023-04-29T06:46:34.951Z,24.02
2023-04-29T06:49:08.711Z,24.08
2023-04-29T06:51:37.100Z,23.55
2023-04-29T06:54:04.302Z,24.85
2023-04-29T06:56:30.844Z,23.63
2023-04-29T06:58:57.767Z,24.83
2023-04-29T07:01:24.447Z,23.77
2023-04-29T07:03:51.285Z,24.40
2023-04-29T07:06:18.130Z,23.30
2023-04-29T07:08:44.745Z,24.48
2023-04-29T07:11:11.427Z,23.70
2023-04-29T07:13:41.012Z,22.77
2023-04-29T07:16:16.877Z,25.50
2023-04-29T07:18:43.596Z,23.40
2023-04-29T07:21:10.227Z,24.73
2023-04-29T07:23:36.890Z,23.15
2023-04-29T07:26:17.289Z,24.27
2023-04-29T07:28:44.871Z,24.35
2023-04-29T07:31:14.553Z,21.95
2023-04-29T07:33:41.214Z,23.35
2023-04-29T07:36:08.069Z,21.45
2023-04-29T07:38:35.044Z,22.02
2023-04-29T07:41:01.885Z,22.75
2023-04-29T07:43:28.650Z,21.27
2023-04-29T07:45:59.429Z,23.05
2023-04-29T07:48:26.227Z,22.23
2023-04-29T07:50:52.831Z,20.02
2023-04-29T07:53:19.444Z,20.92
2023-04-29T07:55:53.436Z,20.67
2023-04-29T07:58:23.221Z,19.42
2023-04-29T08:00:49.881Z,20.40
2023-04-29T08:03:19.941Z,19.95
2023-04-29T08:05:46.773Z,21.10
2023-04-29T08:08:13.377Z,19.23
2023-04-29T08:10:43.318Z,19.42
2023-04-29T08:13:10.931Z,18.67
2023-04-29T08:15:37.782Z,18.85
2023-04-29T08:18:14.529Z,19.13
2023-04-29T08:20:41.816Z,19.88
2023-04-29T08:23:14.795Z,19.02
2023-04-29T08:25:44.052Z,18.77
2023-04-29T08:28:11.769Z,17.88
2023-04-29T08:30:40.955Z,18.60
2023-04-29T08:33:08.472Z,18.25
2023-04-29T08:35:41.492Z,17.10
2023-04-29T08:38:09.580Z,17.10
2023-04-29T08:40:47.073Z,16.48
2023-04-29T08:43:15.392Z,15.70
2023-04-29T08:45:43.413Z,17.20
2023-04-29T08:48:11.063Z,16.02
2023-04-29T08:50:42.931Z,15.93
2023-04-29T08:53:11.111Z,15.63
2023-04-29T08:55:50.978Z,16.25
2023-04-29T08:58:18.244Z,15.02
2023-04-29T09:00:45.419Z,16.73
2023-04-29T09:03:24.272Z,15.82
2023-04-29T09:05:58.198Z,15.20
2023-04-29T09:08:28.116Z,13.85
2023-04-29T09:10:55.934Z,14.95
2023-04-29T09:13:32.898Z,14.15
2023-04-29T09:15:59.595Z,13.75
2023-04-29T09:18:47.941Z,15.00
2023-04-29T09:21:21.765Z,13.63
2023-04-29T09:23:55.924Z,13.23
2023-04-29T09:26:28.888Z,12.40
2023-04-29T09:29:18.479Z,13.02
2023-04-29T09:31:49.060Z,11.57
2023-04-29T09:34:31.830Z,12.90
2023-04-29T09:36:59.320Z,11.95
2023-04-29T09:39:26.618Z,11.65
2023-04-29T09:41:53.630Z,11.00
2023-04-29T09:44:36.241Z,10.75
2023-04-29T09:47:08.169Z,11.02
2023-04-29T09:49:45.369Z,11.32
2023-04-29T09:52:15.074Z,12.52
2023-04-29T09:54:42.959Z,11.60
2023-04-29T09:57:11.752Z,10.82
2023-04-29T09:59:46.785Z,9.52
2023-04-29T10:02:21.226Z,10.65
2023-04-29T10:05:02.264Z,10.32
2023-04-29T10:07:39.758Z,10.80
2023-04-29T10:10:08.232Z,10.65
2023-04-29T10:12:40.095Z,10.63
2023-04-29T10:15:12.607Z,10.77
2023-04-29T10:18:26.381Z,10.87
2023-04-29T10:21:01.972Z,9.75
2023-04-29T10:23:30.856Z,10.10
2023-04-29T10:26:01.868Z,9.38
2023-04-29T10:28:32.679Z,9.13
2023-04-29T10:31:06.769Z,8.63
2023-04-29T10:33:35.921Z,9.30
2023-04-29T10:36:03.553Z,9.00
2023-04-29T10:38:37.266Z,8.38
2023-04-29T10:41:34.873Z,8.98
2023-04-29T10:44:04.415Z,8.60
2023-04-29T10:46:31.356Z,8.50
2023-04-29T10:49:09.859Z,9.27
2023-04-29T10:51:44.580Z,8.35
2023-04-29T10:54:23.499Z,8.88
2023-04-29T10:56:52.554Z,9.73
2023-04-29T10:59:33.673Z,9.48
2023-04-29T11:02:00.710Z,8.75
2023-04-29T11:04:54.522Z,9.68
2023-04-29T11:07:30.720Z,9.40
2023-04-29T11:09:57.398Z,9.35
2023-04-29T11:12:24.090Z,9.38
2023-04-29T11:14:52.320Z,9.00
2023-04-29T11:17:23.452Z,8.88
2023-04-29T11:19:51.859Z,9.63
2023-04-29T11:22:26.072Z,9.30
2023-04-29T11:25:07.339Z,9.63
2023-04-29T11:27:39.086Z,8.88
2023-04-29T11:30:07.787Z,9.18
2023-04-29T11:32:43.222Z,10.35
2023-04-29T11:35:17.791Z,9.20
2023-04-29T11:37:46.263Z,9.90
2023-04-29T11:40:16.900Z,8.52
2023-04-29T11:42:50.420Z,9.00
2023-04-29T11:47:49.083Z,7.90
2023-04-29T11:50:19.588Z,8.02
2023-04-29T11:52:48.455Z,7.82
2023-04-29T11:55:15.506Z,7.95
2023-04-29T11:57:42.097Z,7.72
2023-04-29T12:00:13.730Z,7.60
2023-04-29T12:02:45.045Z,7.78
2023-04-29T12:05:13.291Z,7.75
2023-04-29T12:07:40.571Z,8.30
2023-04-29T12:10:11.433Z,7.93
2023-04-29T12:12:41.030Z,8.07
2023-04-29T12:15:10.047Z,8.57
2023-04-29T12:17:39.098Z,7.85
2023-04-29T12:20:08.410Z,7.57
2023-04-29T12:22:35.364Z,8.32
2023-04-29T12:25:06.066Z,7.57
2023-04-29T12:27:34.561Z,7.82
2023-04-29T12:30:01.398Z,9.15
2023-04-29T12:32:30.012Z,8.40
2023-04-29T12:34:56.931Z,8.43
2023-04-29T12:37:26.348Z,8.13
2023-04-29T12:39:56.288Z,7.65
2023-04-29T12:42:31.836Z,7.03
2023-04-29T12:44:58.630Z,6.55
2023-04-29T12:47:37.406Z,6.15
2023-04-29T12:50:07.095Z,6.10
2023-04-29T12:52:42.793Z,6.25
2023-04-29T12:55:09.640Z,6.68
2023-04-29T12:57:37.919Z,6.60
2023-04-29T13:00:05.545Z,5.63
2023-04-29T13:02:32.708Z,6.15
2023-04-29T13:05:01.585Z,7.18
2023-04-29T13:07:28.446Z,5.95
2023-04-29T13:12:22.109Z,5.57
2023-04-29T13:14:48.861Z,6.00
2023-04-29T13:17:16.148Z,6.32
2023-04-29T13:19:51.404Z,6.20
2023-04-29T13:22:19.094Z,6.38
2023-04-29T13:24:47.065Z,6.30
2023-04-29T13:27:13.726Z,5.80
2023-04-29T13:29:45.016Z,6.15
2023-04-29T13:32:21.151Z,6.68
2023-04-29T13:34:47.851Z,5.75
2023-04-29T13:37:14.442Z,5.88
2023-04-29T13:39:45.891Z,6.53
2023-04-29T13:42:15.621Z,6.13
2023-04-29T13:44:51.738Z,6.28
2023-04-29T13:47:24.675Z,6.40
2023-04-29T13:55:50.043Z,5.40
2023-04-29T14:01:01.462Z,5.53
2023-04-29T14:03:12.926Z,5.88
2023-04-29T14:05:39.766Z,5.95
2023-04-29T14:08:12.254Z,5.47
2023-04-29T14:10:46.562Z,5.32
2023-04-29T14:13:25.359Z,5.82
2023-04-29T14:16:03.859Z,5.45
2023-04-29T14:18:30.706Z,5.15
2023-04-29T14:21:01.018Z,5.95
2023-04-29T14:24:08.103Z,4.85
2023-04-29T14:26:28.651Z,5.60
2023-04-29T14:28:59.586Z,4.93
2023-04-29T14:31:31.273Z,5.63
2023-04-29T14:33:58.450Z,5.25
2023-04-29T14:36:26.676Z,5.18
2023-04-29T14:39:04.987Z,4.55
2023-04-29T14:41:57.388Z,5.07
2023-04-29T14:44:24.127Z,4.72
2023-04-29T14:46:50.702Z,4.63
2023-04-29T14:49:20.376Z,4.80
2023-04-29T14:51:47.062Z,4.53
2023-04-29T14:54:14.171Z,5.57
2023-04-29T14:56:41.032Z,4.53
2023-04-29T14:59:08.908Z,4.40
2023-04-29T15:01:35.840Z,5.00
2023-04-29T15:04:04.337Z,4.47
2023-04-29T15:06:34.802Z,4.82
2023-04-29T15:09:01.887Z,4.80
2023-04-29T15:11:29.791Z,5.30
2023-04-29T15:13:56.619Z,4.80
2023-04-29T15:16:23.242Z,4.70
2023-04-29T15:18:50.009Z,4.85
2023-04-29T15:21:16.757Z,4.60
2023-04-29T15:23:43.478Z,5.10
2023-04-29T15:26:12.148Z,4.18
2023-04-29T15:28:46.374Z,4.22
2023-04-29T15:31:25.496Z,4.07
2023-04-29T15:33:58.261Z,4.20
2023-04-29T15:36:37.414Z,4.20
2023-04-29T15:39:07.745Z,4.10
2023-04-29T15:41:42.599Z,4.78
2023-04-29T15:44:15.049Z,4.35
2023-04-29T15:46:41.653Z,4.70
2023-04-29T15:49:08.240Z,5.30
2023-04-29T15:51:34.803Z,4.40
2023-04-29T15:54:01.446Z,3.83
2023-04-29T15:56:30.718Z,4.25
2023-04-29T15:58:57.355Z,3.90
2023-04-29T16:01:23.999Z,4.85
2023-04-29T16:03:50.938Z,4.00
2023-04-29T16:06:17.693Z,3.70
2023-04-29T16:08:44.527Z,3.65
2023-04-29T16:11:11.179Z,3.88
2023-04-29T16:13:38.057Z,3.25
2023-04-29T16:16:04.958Z,3.85
2023-04-29T16:18:32.288Z,5.18
2023-04-29T16:20:59.328Z,4.10
2023-04-29T16:23:26.124Z,4.03
2023-04-29T16:25:52.912Z,4.40
2023-04-29T16:28:19.574Z,4.10
2023-04-29T16:30:46.693Z,3.30
2023-04-29T16:33:14.210Z,3.63
2023-04-29T16:35:40.921Z,3.60
2023-04-29T16:38:07.749Z,3.55
2023-04-29T16:40:37.684Z,3.50
2023-04-29T16:43:31.222Z,3.10
2023-04-29T16:45:58.556Z,3.38
2023-04-29T16:48:25.337Z,2.85
2023-04-29T16:50:52.395Z,3.28
2023-04-29T16:53:19.189Z,4.22
2023-04-29T16:55:46.461Z,3.08
2023-04-29T16:58:19.848Z,3.33
2023-04-29T17:03:35.502Z,2.95
2023-04-29T17:06:02.748Z,3.10
2023-04-29T17:08:57.962Z,3.10
2023-04-29T17:11:32.305Z,2.83
2023-04-29T17:14:02.231Z,3.20
2023-04-29T17:16:30.666Z,3.03
2023-04-29T17:19:16.608Z,2.97
2023-04-29T17:21:43.338Z,3.28
2023-04-29T17:24:09.999Z,3.53
2023-04-29T17:26:36.655Z,3.80
2023-04-29T17:29:06.078Z,3.30
2023-04-29T17:31:45.469Z,3.08
2023-04-29T17:34:18.834Z,3.58
2023-04-29T17:39:13.995Z,3.03
2023-04-29T17:41:44.664Z,3.75
2023-04-29T17:44:41.553Z,3.38
2023-04-29T17:46:58.908Z,3.10
2023-04-29T17:49:25.734Z,3.00
2023-04-29T17:51:52.662Z,3.83
2023-04-29T17:54:22.602Z,3.50
2023-04-29T17:56:49.307Z,4.75
2023-04-29T17:59:16.678Z,4.07
2023-04-29T18:01:43.338Z,3.80
2023-04-29T18:04:10.142Z,3.80
2023-04-29T18:06:36.893Z,3.63
2023-04-29T18:09:06.455Z,4.32
2023-04-29T18:11:33.117Z,3.92
2023-04-29T18:13:59.890Z,4.07
2023-04-29T18:16:27.279Z,4.47
2023-04-29T18:18:56.741Z,4.97
2023-04-29T18:21:25.232Z,5.22
2023-04-29T18:23:53.306Z,4.75
2023-04-29T18:26:20.752Z,5.47
2023-04-29T18:28:48.233Z,5.93
2023-04-29T18:31:18.610Z,5.03
2023-04-29T18:33:45.412Z,5.15
2023-04-29T18:36:14.090Z,5.70
2023-04-29T18:38:40.778Z,5.65
2023-04-29T18:41:17.664Z,6.35
2023-04-29T18:43:58.106Z,5.13
2023-04-29T18:46:30.514Z,4.60
2023-04-29T18:48:57.271Z,4.90
2023-04-29T18:51:24.117Z,4.95
2023-04-29T18:54:09.322Z,5.03
2023-04-29T18:56:42.342Z,4.45
2023-04-29T18:59:12.919Z,4.22
2023-04-29T19:01:43.259Z,4.22
2023-04-29T19:04:10.416Z,4.10
2023-04-29T19:06:37.235Z,4.18
2023-04-29T19:09:07.253Z,4.20
2023-04-29T19:11:40.109Z,3.88
2023-04-29T19:14:12.826Z,4.40
2023-04-29T19:16:42.381Z,4.30
2023-04-29T19:19:09.048Z,4.00
2023-04-29T19:21:36.170Z,4.28
2023-04-29T19:24:03.132Z,3.80
2023-04-29T19:26:31.156Z,4.10
2023-04-29T19:28:59.834Z,4.15
2023-04-29T19:31:26.871Z,3.83
2023-04-29T19:33:53.666Z,4.03
2023-04-29T19:36:23.447Z,4.30
2023-04-29T19:38:50.366Z,3.88
2023-04-29T19:41:18.990Z,3.90
2023-04-29T19:43:45.616Z,4.75
2023-04-29T19:46:13.261Z,4.47
2023-04-29T19:48:40.120Z,4.18
2023-04-29T19:51:07.228Z,4.35
2023-04-29T19:53:34.151Z,4.47
2023-04-29T19:56:02.102Z,4.65
2023-04-29T19:58:28.948Z,4.25
2023-04-29T20:00:55.619Z,4.65
2023-04-29T20:03:22.289Z,4.72
2023-04-29T20:05:49.360Z,4.97
2023-04-29T20:08:18.286Z,4.80
2023-04-29T20:10:48.492Z,4.65
2023-04-29T20:13:15.952Z,5.65
2023-04-29T20:15:42.670Z,5.55
2023-04-29T20:18:09.614Z,5.13
2023-04-29T20:20:36.286Z,5.38
2023-04-29T20:23:03.010Z,4.80
2023-04-29T20:25:30.077Z,5.68
2023-04-29T20:28:18.324Z,4.57
2023-04-29T20:30:53.021Z,4.53
2023-04-29T20:33:19.775Z,4.88
2023-04-29T20:35:46.642Z,4.80
2023-04-29T20:38:18.392Z,6.10
2023-04-29T20:40:49.012Z,5.00
2023-04-29T20:43:15.829Z,5.03
2023-04-29T20:45:43.020Z,4.70
2023-04-29T20:48:10.040Z,4.70
2023-04-29T20:50:36.652Z,4.57
2023-04-29T20:53:03.404Z,4.82
2023-04-29T20:55:30.075Z,4.32
2023-04-29T20:57:56.840Z,4.68
2023-04-29T21:00:23.804Z,4.40
2023-04-29T21:03:19.992Z,5.70
2023-04-29T21:05:51.622Z,4.15
2023-04-29T21:08:20.461Z,4.03
2023-04-29T21:10:50.076Z,3.90
2023-04-29T21:13:17.925Z,3.45
2023-04-29T21:16:02.834Z,2.80
2023-04-29T21:18:29.581Z,3.40
2023-04-29T21:20:58.501Z,3.95
2023-04-29T21:23:31.139Z,3.13
2023-04-29T21:26:02.760Z,3.50
2023-04-29T21:28:29.547Z,3.00
2023-04-29T21:30:56.556Z,3.13
2023-04-29T21:33:23.230Z,3.20
2023-04-29T21:35:51.684Z,3.25
2023-04-29T21:38:18.910Z,3.22
2023-04-29T21:40:50.247Z,2.85
2023-04-29T21:43:17.876Z,3.20
2023-04-29T21:45:50.561Z,2.72
2023-04-29T21:48:18.552Z,2.60
2023-04-29T21:50:45.853Z,3.20
2023-04-29T21:53:15.897Z,3.03
2023-04-29T21:55:43.333Z,3.45
2023-04-29T21:58:11.043Z,3.42
2023-04-29T22:00:40.587Z,2.80
2023-04-29T22:03:08.832Z,3.10
2023-04-29T22:05:36.473Z,3.10
2023-04-29T22:08:07.394Z,3.40
2023-04-29T22:10:34.539Z,4.10
2023-04-29T22:13:01.186Z,3.03
2023-04-29T22:15:29.452Z,2.80
2023-04-29T22:17:57.369Z,2.90
2023-04-29T22:20:24.344Z,2.55
2023-04-29T22:22:51.793Z,2.58
2023-04-29T22:25:19.905Z,2.90
2023-04-29T22:27:46.511Z,2.92
2023-04-29T22:30:13.849Z,3.20
2023-04-29T22:32:40.759Z,2.42
2023-04-29T22:35:07.793Z,3.15
2023-04-29T22:37:34.516Z,2.80
2023-04-29T22:40:01.100Z,3.22
2023-04-29T22:42:27.742Z,3.70
2023-04-29T22:44:54.381Z,3.20
2023-04-29T22:47:23.447Z,2.90
2023-04-29T22:49:50.025Z,3.50
2023-04-29T22:52:16.599Z,3.33
2023-04-29T22:54:43.176Z,3.30
2023-04-29T22:57:09.762Z,3.03
2023-04-29T22:59:36.288Z,3.53
2023-04-29T23:02:02.902Z,3.60
2023-04-29T23:04:30.966Z,4.45
2023-04-29T23:07:36.124Z,4.80
2023-04-29T23:10:02.717Z,5.38
2023-04-29T23:12:30.414Z,4.32
2023-04-29T23:14:57.056Z,5.40
2023-04-29T23:17:23.878Z,5.22
2023-04-29T23:19:50.769Z,5.32
2023-04-29T23:22:17.779Z,5.68
2023-04-29T23:24:44.488Z,5.47
2023-04-29T23:27:11.404Z,4.38
2023-04-29T23:29:37.946Z,4.60
2023-04-29T23:32:04.696Z,4.55
2023-04-29T23:34:31.232Z,4.38
2023-04-29T23:36:57.861Z,4.53
2023-04-29T23:39:24.452Z,4.55
2023-04-29T23:41:51.732Z,4.93
2023-04-29T23:44:18.269Z,4.15
2023-04-29T23:46:45.001Z,4.28
2023-04-29T23:49:11.638Z,4.50
2023-04-29T23:51:38.293Z,4.95
2023-04-29T23:54:04.821Z,5.07
2023-04-29T23:56:33.688Z,5.18
2023-04-29T23:59:00.659Z,5.38
